createdAt,value
2022-11-28T00:01:31.887Z,0.30
2022-11-28T00:03:59.324Z,0.30
2022-11-28T00:06:27.554Z,0.40
2022-11-28T00:08:55.086Z,0.40
2022-11-28T00:11:22.324Z,0.30
2022-11-28T00:13:49.406Z,0.30
2022-11-28T00:16:21.608Z,0.30
2022-11-28T00:18:50.455Z,0.30
2022-11-28T00:21:18.605Z,0.40
2022-11-28T00:23:47.237Z,0.40
2022-11-28T00:26:23.445Z,0.40
2022-11-28T00:28:51.215Z,0.40
2022-11-28T00:31:21.616Z,0.40
2022-11-28T00:33:49.043Z,0.30
2022-11-28T00:36:16.665Z,0.30
2022-11-28T00:38:44.234Z,0.30
2022-11-28T00:41:16.546Z,0.40
2022-11-28T00:43:45.219Z,0.50
2022-11-28T00:46:13.290Z,0.50
2022-11-28T00:48:40.941Z,0.60
2022-11-28T00:51:16.040Z,0.60
2022-11-28T00:53:44.579Z,0.50
2022-11-28T00:56:14.174Z,0.60
2022-11-28T00:58:42.439Z,0.50
2022-11-28T01:01:13.890Z,0.60
2022-11-28T01:03:41.943Z,0.60
2022-11-28T01:06:10.465Z,0.60
2022-11-28T01:08:37.922Z,0.60
2022-11-28T01:11:11.501Z,0.60
2022-11-28T01:13:38.623Z,0.60
2022-11-28T01:16:06.078Z,0.60
2022-11-28T01:18:33.370Z,0.60
2022-11-28T01:21:00.348Z,0.60
2022-11-28T01:23:27.355Z,0.60
2022-11-28T01:25:54.443Z,0.70
2022-11-28T01:28:21.549Z,0.70
2022-11-28T01:30:48.534Z,0.60
2022-11-28T01:33:15.481Z,0.60
2022-11-28T01:35:42.409Z,0.60
2022-11-28T01:38:09.357Z,0.60
2022-11-28T01:40:36.377Z,0.50
2022-11-28T01:43:03.364Z,0.50
2022-11-28T01:45:32.258Z,0.50
2022-11-28T01:48:02.936Z,0.50
2022-11-28T01:50:31.612Z,0.50
2022-11-28T01:53:01.869Z,0.50
2022-11-28T01:55:32.785Z,0.60
2022-11-28T01:58:00.218Z,0.60
2022-11-28T02:00:27.664Z,0.60
2022-11-28T02:03:21.838Z,0.60
2022-11-28T02:05:51.952Z,0.60
2022-11-28T02:08:19.017Z,0.60
2022-11-28T02:11:20.676Z,0.60
2022-11-28T02:14:21.576Z,0.60
2022-11-28T02:16:51.289Z,0.70
2022-11-28T02:19:36.422Z,0.60
2022-11-28T02:22:24.959Z,0.60
2022-11-28T02:25:10.807Z,0.60
2022-11-28T02:27:38.960Z,0.70
2022-11-28T02:30:14.259Z,0.70
2022-11-28T02:32:53.126Z,0.70
2022-11-28T02:35:40.920Z,0.70
2022-11-28T02:38:29.475Z,0.60
2022-11-28T02:41:06.719Z,0.60
2022-11-28T02:43:44.066Z,0.70
2022-11-28T02:46:25.843Z,0.70
2022-11-28T02:49:00.496Z,0.70
2022-11-28T02:51:58.489Z,0.70
2022-11-28T02:54:27.376Z,0.70
2022-11-28T02:56:55.508Z,0.70
2022-11-28T02:59:37.495Z,0.70
2022-11-28T03:02:14.953Z,0.70
2022-11-28T03:04:59.106Z,0.70
2022-11-28T03:07:36.447Z,0.70
2022-11-28T03:10:21.530Z,0.70
2022-11-28T03:13:03.454Z,0.70
2022-11-28T03:15:53.562Z,0.70
2022-11-28T03:18:27.995Z,0.60
2022-11-28T03:21:03.152Z,0.70
2022-11-28T03:23:45.969Z,0.60
2022-11-28T03:26:16.814Z,0.60
2022-11-28T03:28:53.153Z,0.60
2022-11-28T03:31:31.678Z,0.70
2022-11-28T03:34:00.924Z,0.70
2022-11-28T03:37:02.742Z,0.70
2022-11-28T03:39:36.166Z,0.70
2022-11-28T03:42:10.847Z,0.70
2022-11-28T03:44:53.771Z,0.80
2022-11-28T03:47:23.274Z,0.80
2022-11-28T03:49:56.564Z,0.80
2022-11-28T03:52:43.676Z,0.80
2022-11-28T03:55:30.418Z,0.80
2022-11-28T03:58:03.560Z,0.80
2022-11-28T04:00:30.924Z,0.80
2022-11-28T04:03:39.434Z,0.80
2022-11-28T04:06:21.835Z,0.80
2022-11-28T04:09:17.945Z,0.80
2022-11-28T04:11:55.597Z,0.80
2022-11-28T04:14:25.265Z,0.80
2022-11-28T04:17:05.661Z,0.80
2022-11-28T04:19:38.127Z,0.80
2022-11-28T04:22:16.751Z,0.80
2022-11-28T04:24:51.638Z,0.80
2022-11-28T04:27:23.535Z,0.80
2022-11-28T04:29:55.065Z,0.80
2022-11-28T04:32:23.648Z,0.80
2022-11-28T04:34:55.605Z,0.80
2022-11-28T04:37:25.305Z,0.80
2022-11-28T04:39:54.783Z,0.70
2022-11-28T04:42:29.589Z,0.80
2022-11-28T04:45:09.020Z,0.80
2022-11-28T04:47:36.001Z,0.70
2022-11-28T04:50:03.402Z,0.70
2022-11-28T04:52:42.766Z,0.70
2022-11-28T04:55:24.150Z,0.70
2022-11-28T04:57:57.584Z,0.80
2022-11-28T05:00:25.855Z,0.80
2022-11-28T05:02:55.009Z,0.80
2022-11-28T05:05:25.234Z,0.80
2022-11-28T05:07:53.305Z,0.70
2022-11-28T05:10:20.859Z,0.70
2022-11-28T05:12:47.809Z,0.80
2022-11-28T05:15:19.169Z,0.80
2022-11-28T05:17:47.115Z,0.80
2022-11-28T05:20:14.770Z,0.80
2022-11-28T05:22:41.899Z,0.70
2022-11-28T05:25:09.346Z,0.70
2022-11-28T05:27:36.671Z,0.70
2022-11-28T05:30:05.132Z,0.70
2022-11-28T05:32:32.534Z,0.70
2022-11-28T05:34:59.593Z,0.70
2022-11-28T05:37:26.632Z,0.70
2022-11-28T05:39:54.038Z,0.70
2022-11-28T05:42:21.257Z,0.70
2022-11-28T05:44:48.340Z,0.60
2022-11-28T05:47:18.404Z,0.70
2022-11-28T05:49:47.393Z,0.70
2022-11-28T05:52:14.389Z,0.80
2022-11-28T05:54:41.751Z,0.80
2022-11-28T05:57:08.710Z,0.70
2022-11-28T05:59:35.899Z,0.70
2022-11-28T06:02:02.935Z,0.70
2022-11-28T06:04:30.039Z,0.80
2022-11-28T06:06:57.070Z,0.70
2022-11-28T06:09:26.063Z,0.70
2022-11-28T06:11:53.479Z,0.80
2022-11-28T06:14:20.667Z,0.80
2022-11-28T06:16:47.638Z,0.80
2022-11-28T06:19:15.760Z,0.80
2022-11-28T06:21:42.854Z,0.80
2022-11-28T06:24:10.804Z,0.80
2022-11-28T06:26:37.836Z,0.80
2022-11-28T06:29:04.876Z,0.80
2022-11-28T06:31:31.946Z,0.80
2022-11-28T06:33:59.351Z,0.80
2022-11-28T06:36:27.163Z,0.80
2022-11-28T06:38:54.473Z,0.80
2022-11-28T06:41:22.982Z,0.80
2022-11-28T06:43:50.409Z,0.80
2022-11-28T06:46:22.264Z,0.80
2022-11-28T06:48:51.385Z,0.80
2022-11-28T06:51:19.405Z,0.80
2022-11-28T06:53:46.498Z,0.80
2022-11-28T06:56:16.286Z,0.70
2022-11-28T06:58:44.071Z,0.80
2022-11-28T07:01:18.224Z,0.80
2022-11-28T07:03:45.846Z,0.80
2022-11-28T07:06:14.835Z,0.80
2022-11-28T07:08:41.882Z,0.80
2022-11-28T07:11:11.968Z,0.80
2022-11-28T07:13:39.963Z,0.80
2022-11-28T07:16:08.153Z,0.80
2022-11-28T07:18:35.463Z,0.80
2022-11-28T07:21:02.735Z,0.80
2022-11-28T07:23:29.856Z,0.80
2022-11-28T07:26:01.092Z,0.80
2022-11-28T07:28:29.618Z,0.90
2022-11-28T07:31:11.356Z,0.90
2022-11-28T07:33:39.902Z,0.80
2022-11-28T07:36:11.435Z,0.80
2022-11-28T07:38:38.365Z,0.80
2022-11-28T07:41:06.981Z,0.80
2022-11-28T07:43:34.172Z,0.70
2022-11-28T07:46:04.998Z,0.70
2022-11-28T07:48:32.019Z,0.70
2022-11-28T07:50:59.009Z,0.80
2022-11-28T07:53:26.052Z,0.80
2022-11-28T07:55:53.038Z,0.80
2022-11-28T07:58:21.851Z,0.90
2022-11-28T08:00:49.103Z,0.90
2022-11-28T08:03:16.134Z,0.90
2022-11-28T08:05:49.372Z,0.90
2022-11-28T08:08:20.390Z,1.00
2022-11-28T08:10:47.343Z,1.00
2022-11-28T08:13:14.641Z,1.00
2022-11-28T08:15:41.684Z,0.90
2022-11-28T08:18:08.659Z,0.90
2022-11-28T08:20:35.678Z,1.00
2022-11-28T08:23:02.624Z,1.00
2022-11-28T08:25:29.615Z,1.00
2022-11-28T08:27:56.561Z,1.00
2022-11-28T08:30:23.943Z,1.00
2022-11-28T08:32:51.326Z,1.10
2022-11-28T08:35:18.564Z,1.10
2022-11-28T08:37:45.803Z,1.10
2022-11-28T08:40:13.438Z,1.10
2022-11-28T08:42:40.606Z,1.10
2022-11-28T08:45:08.085Z,1.00
2022-11-28T08:47:35.009Z,1.00
2022-11-28T08:50:02.531Z,1.00
2022-11-28T08:52:29.512Z,1.10
2022-11-28T08:54:56.452Z,1.10
2022-11-28T08:57:23.442Z,1.10
2022-11-28T08:59:50.562Z,1.10
2022-11-28T09:02:19.876Z,1.10
2022-11-28T09:04:50.097Z,1.20
2022-11-28T09:07:17.134Z,1.10
2022-11-28T09:09:44.776Z,1.20
2022-11-28T09:12:11.979Z,1.20
2022-11-28T09:14:39.000Z,1.20
2022-11-28T09:17:06.033Z,1.20
2022-11-28T09:19:33.091Z,1.20
2022-11-28T09:22:00.108Z,1.30
2022-11-28T09:24:27.097Z,1.30
2022-11-28T09:26:54.279Z,1.20
2022-11-28T09:29:21.357Z,1.30
2022-11-28T09:31:48.312Z,1.30
2022-11-28T09:34:15.845Z,1.20
2022-11-28T09:36:42.870Z,1.30
2022-11-28T09:39:09.897Z,1.30
2022-11-28T09:41:52.087Z,1.30
2022-11-28T09:44:22.365Z,1.30
2022-11-28T09:46:53.282Z,1.30
2022-11-28T09:49:41.097Z,1.40
2022-11-28T09:52:48.548Z,1.40
2022-11-28T09:55:44.317Z,1.40
2022-11-28T09:58:35.830Z,1.50
2022-11-28T10:01:25.379Z,1.40
2022-11-28T10:04:08.189Z,1.40
2022-11-28T10:07:06.336Z,1.40
2022-11-28T10:09:36.081Z,1.40
2022-11-28T10:12:29.053Z,1.40
2022-11-28T10:15:20.503Z,1.40
2022-11-28T10:18:12.914Z,1.40
2022-11-28T10:20:43.542Z,1.40
2022-11-28T10:23:22.279Z,1.30
2022-11-28T10:26:26.189Z,1.30
2022-11-28T10:28:56.895Z,1.40
2022-11-28T10:31:41.491Z,1.30
2022-11-28T10:34:30.599Z,1.30
2022-11-28T10:37:20.377Z,1.30
2022-11-28T10:39:48.545Z,1.30
2022-11-28T10:42:30.780Z,1.30
2022-11-28T10:45:06.797Z,1.30
2022-11-28T10:47:51.802Z,1.30
2022-11-28T10:50:39.371Z,1.40
2022-11-28T10:53:29.294Z,1.40
2022-11-28T10:56:11.251Z,1.40
2022-11-28T10:59:05.508Z,1.50
2022-11-28T11:01:37.958Z,1.50
2022-11-28T11:04:06.292Z,1.50
2022-11-28T11:06:41.788Z,1.50
2022-11-28T11:09:11.784Z,1.50
2022-11-28T11:11:50.197Z,1.50
2022-11-28T11:14:53.038Z,1.40
2022-11-28T11:17:34.223Z,1.40
2022-11-28T11:20:03.918Z,1.40
2022-11-28T11:22:31.838Z,1.40
2022-11-28T11:25:20.171Z,1.40
2022-11-28T11:27:56.859Z,1.40
2022-11-28T11:30:43.015Z,1.40
2022-11-28T11:33:17.030Z,1.40
2022-11-28T11:35:48.386Z,1.40
2022-11-28T11:38:18.125Z,1.40
2022-11-28T11:40:45.256Z,1.40
2022-11-28T11:43:32.213Z,1.40
2022-11-28T11:46:11.417Z,1.40
2022-11-28T11:48:41.377Z,1.40
2022-11-28T11:51:37.950Z,1.40
2022-11-28T11:54:19.713Z,1.40
2022-11-28T11:56:53.537Z,1.40
2022-11-28T11:59:45.445Z,1.40
2022-11-28T12:02:30.870Z,1.40
2022-11-28T12:05:18.740Z,1.30
2022-11-28T12:07:58.041Z,1.40
2022-11-28T12:10:28.338Z,1.40
2022-11-28T12:12:55.785Z,1.30
2022-11-28T12:15:58.725Z,1.40
2022-11-28T12:18:46.021Z,1.30
2022-11-28T12:21:18.830Z,1.30
2022-11-28T12:24:09.656Z,1.40
2022-11-28T12:26:42.496Z,1.40
2022-11-28T12:29:34.171Z,1.40
2022-11-28T12:32:01.127Z,1.40
2022-11-28T12:34:49.605Z,1.50
2022-11-28T12:38:02.695Z,1.50
2022-11-28T12:40:38.105Z,1.40
2022-11-28T12:43:34.366Z,1.40
2022-11-28T12:46:28.289Z,1.40
2022-11-28T12:48:55.272Z,1.40
2022-11-28T12:51:56.637Z,1.40
2022-11-28T12:54:57.891Z,1.40
2022-11-28T12:57:42.902Z,1.50
2022-11-28T13:00:13.035Z,1.40
2022-11-28T13:03:10.157Z,1.50
2022-11-28T13:05:43.128Z,1.50
2022-11-28T13:08:28.150Z,1.50
2022-11-28T13:10:55.123Z,1.50
2022-11-28T13:13:48.410Z,1.50
2022-11-28T13:16:42.180Z,1.50
2022-11-28T13:19:27.280Z,1.40
2022-11-28T13:22:15.019Z,1.30
2022-11-28T13:24:52.988Z,1.30
2022-11-28T13:27:33.154Z,1.40
2022-11-28T13:30:23.762Z,1.40
2022-11-28T13:32:59.660Z,1.30
2022-11-28T13:35:28.612Z,1.30
2022-11-28T13:38:38.426Z,1.30
2022-11-28T13:42:14.282Z,1.30
2022-11-28T13:44:31.723Z,1.30
2022-11-28T13:47:13.642Z,1.30
2022-11-28T13:49:40.578Z,1.30
2022-11-28T13:52:29.371Z,1.20
2022-11-28T13:54:56.389Z,1.20
2022-11-28T13:57:26.344Z,1.30
2022-11-28T14:00:01.781Z,1.30
2022-11-28T14:02:39.682Z,1.30
2022-11-28T14:05:26.451Z,1.30
2022-11-28T14:07:55.985Z,1.30
2022-11-28T14:10:33.534Z,1.30
2022-11-28T14:13:23.170Z,1.20
2022-11-28T14:16:02.106Z,1.20
2022-11-28T14:18:56.909Z,1.30
2022-11-28T14:22:01.978Z,1.30
2022-11-28T14:25:31.661Z,1.30
2022-11-28T14:28:05.552Z,1.20
2022-11-28T14:30:42.057Z,1.30
2022-11-28T14:33:18.225Z,1.30
2022-11-28T14:35:51.179Z,1.30
2022-11-28T14:38:35.929Z,1.30
2022-11-28T14:41:11.676Z,1.20
2022-11-28T14:43:48.702Z,1.30
2022-11-28T14:46:15.720Z,1.30
2022-11-28T14:49:05.515Z,1.30
2022-11-28T14:52:30.948Z,1.30
2022-11-28T14:54:54.137Z,1.30
2022-11-28T14:57:30.516Z,1.30
2022-11-28T15:00:04.231Z,1.20
2022-11-28T15:03:02.245Z,1.20
2022-11-28T15:05:39.970Z,1.30
2022-11-28T15:08:26.717Z,1.30
2022-11-28T15:11:35.467Z,1.30
2022-11-28T15:14:08.322Z,1.20
2022-11-28T15:16:42.824Z,1.30
2022-11-28T15:19:37.182Z,1.20
2022-11-28T15:22:04.638Z,1.30
2022-11-28T15:24:36.912Z,1.30
2022-11-28T15:27:12.797Z,1.40
2022-11-28T15:29:39.757Z,1.30
2022-11-28T15:32:07.051Z,1.30
2022-11-28T15:34:36.276Z,1.20
2022-11-28T15:37:06.525Z,1.30
2022-11-28T15:39:40.001Z,1.30
2022-11-28T15:42:18.255Z,1.30
2022-11-28T15:44:46.066Z,1.20
2022-11-28T15:47:20.138Z,1.30
2022-11-28T15:50:01.354Z,1.30
2022-11-28T15:52:28.530Z,1.30
2022-11-28T15:54:55.585Z,1.30
2022-11-28T15:57:25.996Z,1.30
2022-11-28T15:59:53.481Z,1.40
2022-11-28T16:02:31.681Z,1.40
2022-11-28T16:05:08.890Z,1.30
2022-11-28T16:07:41.887Z,1.30
2022-11-28T16:10:22.693Z,1.40
2022-11-28T16:12:49.957Z,1.40
2022-11-28T16:15:22.444Z,1.40
2022-11-28T16:17:49.949Z,1.40
2022-11-28T16:20:23.579Z,1.40
2022-11-28T16:22:50.648Z,1.30
2022-11-28T16:25:27.461Z,1.40
2022-11-28T16:27:57.412Z,1.30
2022-11-28T16:30:37.012Z,1.40
2022-11-28T16:33:38.967Z,1.30
2022-11-28T16:36:10.994Z,1.40
2022-11-28T16:38:38.712Z,1.40
2022-11-28T16:41:05.988Z,1.40
2022-11-28T16:43:32.904Z,1.30
2022-11-28T16:46:01.466Z,1.40
2022-11-28T16:48:34.570Z,1.30
2022-11-28T16:51:13.534Z,1.40
2022-11-28T16:53:48.015Z,1.30
2022-11-28T16:56:30.452Z,1.40
2022-11-28T16:59:16.009Z,1.30
2022-11-28T17:01:45.116Z,1.30
2022-11-28T17:04:29.340Z,1.40
2022-11-28T17:06:59.034Z,1.40
2022-11-28T17:09:26.130Z,1.40
2022-11-28T17:12:17.771Z,1.40
2022-11-28T17:14:44.718Z,1.40
2022-11-28T17:17:15.546Z,1.30
2022-11-28T17:19:42.913Z,1.40
2022-11-28T17:22:19.837Z,1.40
2022-11-28T17:24:48.362Z,1.30
2022-11-28T17:27:16.061Z,1.30
2022-11-28T17:29:43.370Z,1.30
2022-11-28T17:32:14.575Z,1.30
2022-11-28T17:34:42.719Z,1.30
2022-11-28T17:37:10.066Z,1.20
2022-11-28T17:39:37.298Z,1.30
2022-11-28T17:42:05.213Z,1.30
2022-11-28T17:44:34.580Z,1.30
2022-11-28T17:47:02.702Z,1.30
2022-11-28T17:49:30.851Z,1.20
2022-11-28T17:51:58.403Z,1.20
2022-11-28T17:54:27.194Z,1.20
2022-11-28T17:56:54.894Z,1.20
2022-11-28T17:59:24.150Z,1.20
2022-11-28T18:01:51.403Z,1.20
2022-11-28T18:04:18.481Z,1.20
2022-11-28T18:06:47.198Z,1.30
2022-11-28T18:09:14.954Z,1.30
2022-11-28T18:11:43.009Z,1.30
2022-11-28T18:14:10.823Z,1.30
2022-11-28T18:16:39.699Z,1.40
2022-11-28T18:19:06.998Z,1.40
2022-11-28T18:21:34.006Z,1.40
2022-11-28T18:24:01.019Z,1.50
2022-11-28T18:26:28.480Z,1.50
2022-11-28T18:28:55.869Z,1.60
2022-11-28T18:31:25.283Z,1.60
2022-11-28T18:33:55.178Z,1.60
2022-11-28T18:36:27.743Z,1.60
2022-11-28T18:38:59.695Z,1.60
2022-11-28T18:41:27.361Z,1.60
2022-11-28T18:44:02.544Z,1.60
2022-11-28T18:46:30.631Z,1.70
2022-11-28T18:48:58.382Z,1.60
2022-11-28T18:51:28.237Z,1.70
2022-11-28T18:53:56.461Z,1.70
2022-11-28T18:56:24.215Z,1.70
2022-11-28T18:58:54.001Z,1.70
2022-11-28T19:01:28.551Z,1.80
2022-11-28T19:04:05.182Z,1.80
2022-11-28T19:06:33.774Z,1.80
2022-11-28T19:09:02.745Z,1.80
2022-11-28T19:11:30.302Z,1.80
2022-11-28T19:13:57.774Z,1.90
2022-11-28T19:16:30.612Z,1.90
2022-11-28T19:18:58.928Z,1.90
2022-11-28T19:21:28.412Z,1.90
2022-11-28T19:23:56.302Z,1.80
2022-11-28T19:26:25.877Z,1.80
2022-11-28T19:28:53.465Z,1.80
2022-11-28T19:31:29.297Z,1.80
2022-11-28T19:34:04.845Z,1.80
2022-11-28T19:36:34.958Z,1.80
2022-11-28T19:39:02.476Z,1.80
2022-11-28T19:41:29.893Z,1.90
2022-11-28T19:43:57.352Z,1.90
2022-11-28T19:46:24.458Z,1.90
2022-11-28T19:48:51.883Z,1.90
2022-11-28T19:51:20.056Z,1.90
2022-11-28T19:53:47.077Z,1.90
2022-11-28T19:56:17.530Z,1.90
2022-11-28T19:58:45.252Z,2.00
2022-11-28T20:01:20.728Z,2.00
2022-11-28T20:03:49.077Z,2.00
2022-11-28T20:06:20.161Z,2.00
2022-11-28T20:08:48.324Z,2.00
2022-11-28T20:11:19.916Z,2.10
2022-11-28T20:13:47.494Z,2.00
2022-11-28T20:16:17.692Z,2.00
2022-11-28T20:18:45.450Z,2.00
2022-11-28T20:21:15.714Z,2.10
2022-11-28T20:23:48.490Z,2.10
2022-11-28T20:26:17.478Z,2.00
2022-11-28T20:28:45.010Z,2.00
2022-11-28T20:31:23.336Z,2.00
2022-11-28T20:33:51.787Z,2.00
2022-11-28T20:36:21.506Z,2.00
2022-11-28T20:38:49.463Z,1.90
2022-11-28T20:41:18.630Z,1.90
2022-11-28T20:43:46.133Z,1.90
2022-11-28T20:46:16.522Z,1.90
2022-11-28T20:48:43.870Z,1.90
2022-11-28T20:51:13.676Z,1.90
2022-11-28T20:53:41.233Z,1.90
2022-11-28T20:56:19.447Z,2.00
2022-11-28T20:58:46.971Z,2.00
2022-11-28T21:01:22.976Z,1.90
2022-11-28T21:03:50.998Z,1.90
2022-11-28T21:06:19.218Z,1.90
2022-11-28T21:08:46.170Z,1.90
2022-11-28T21:11:43.832Z,1.80
2022-11-28T21:14:08.488Z,1.80
2022-11-28T21:16:35.511Z,1.80
2022-11-28T21:19:06.282Z,1.80
2022-11-28T21:21:34.388Z,1.90
2022-11-28T21:24:07.331Z,1.70
2022-11-28T21:26:40.505Z,1.70
2022-11-28T21:29:11.796Z,1.70
2022-11-28T21:31:43.198Z,1.70
2022-11-28T21:34:14.778Z,1.60
2022-11-28T21:36:42.596Z,1.60
2022-11-28T21:39:14.830Z,1.60
2022-11-28T21:41:42.030Z,1.70
2022-11-28T21:44:09.507Z,1.70
2022-11-28T21:46:36.609Z,1.70
2022-11-28T21:49:03.569Z,1.70
2022-11-28T21:51:30.573Z,1.70
2022-11-28T21:53:58.003Z,1.70
2022-11-28T21:56:25.644Z,1.60
2022-11-28T21:58:52.622Z,1.70
2022-11-28T22:01:21.347Z,1.60
2022-11-28T22:03:49.418Z,1.60
2022-11-28T22:06:22.560Z,1.70
2022-11-28T22:08:50.374Z,1.60
2022-11-28T22:11:18.630Z,1.70
2022-11-28T22:13:46.371Z,1.60
2022-11-28T22:16:19.523Z,1.60
2022-11-28T22:18:48.050Z,1.70
2022-11-28T22:24:03.749Z,1.60
2022-11-28T22:26:30.697Z,1.70
2022-11-28T22:28:58.942Z,1.70
2022-11-28T22:31:26.151Z,1.60
2022-11-28T22:33:53.533Z,1.70
2022-11-28T22:36:21.433Z,1.80
2022-11-28T22:38:49.480Z,1.70
2022-11-28T22:41:23.293Z,1.70
2022-11-28T22:43:56.447Z,1.70
2022-11-28T22:46:23.667Z,1.70
2022-11-28T22:48:51.951Z,1.70
2022-11-28T22:51:21.817Z,1.60
2022-11-28T22:53:52.345Z,1.60
2022-11-28T22:56:19.293Z,1.50
2022-11-28T22:58:46.326Z,1.50
2022-11-28T23:01:17.367Z,1.50
2022-11-28T23:03:45.471Z,1.50
2022-11-28T23:06:14.925Z,1.40
2022-11-28T23:08:42.078Z,1.50
2022-11-28T23:11:11.439Z,1.50
2022-11-28T23:13:39.462Z,1.50
2022-11-28T23:16:12.240Z,1.50
2022-11-28T23:18:39.405Z,1.50
2022-11-28T23:21:07.798Z,1.50
2022-11-28T23:23:35.693Z,1.50
2022-11-28T23:26:11.407Z,1.40
2022-11-28T23:28:38.843Z,1.40
2022-11-28T23:31:20.791Z,1.40
2022-11-28T23:33:48.841Z,1.40
2022-11-28T23:36:36.974Z,1.40
2022-11-28T23:39:13.437Z,1.40
2022-11-28T23:41:40.887Z,1.50
2022-11-28T23:44:09.995Z,1.50
2022-11-28T23:46:37.053Z,1.50
2022-11-28T23:49:05.516Z,1.50
2022-11-28T23:51:33.128Z,1.50
2022-11-28T23:54:00.502Z,1.50
2022-11-28T23:56:30.099Z,1.50
2022-11-28T23:58:59.745Z,1.50
